createdAt,value
2022-08-20T00:06:00.410Z,0.70
2022-08-20T00:16:03.077Z,0.70
2022-08-20T00:26:06.325Z,0.90
2022-08-20T00:36:11.013Z,1.10
2022-08-20T00:46:31.193Z,1.05
2022-08-20T00:56:35.295Z,1.33
2022-08-20T01:06:42.012Z,1.23
2022-08-20T01:16:45.086Z,1.13
2022-08-20T01:26:49.395Z,1.30
2022-08-20T01:36:55.318Z,1.10
2022-08-20T01:46:58.001Z,1.10
2022-08-20T01:57:10.709Z,0.93
2022-08-20T02:07:16.396Z,1.40
2022-08-20T02:17:23.200Z,1.40
2022-08-20T02:37:28.423Z,1.10
2022-08-20T02:47:30.498Z,1.57
2022-08-20T02:57:33.382Z,1.50
2022-08-20T03:07:47.338Z,1.57
2022-08-20T03:17:49.607Z,1.77
2022-08-20T03:27:54.233Z,1.43
2022-08-20T03:37:57.664Z,1.60
2022-08-20T03:48:02.001Z,1.50
2022-08-20T03:58:07.387Z,1.77
2022-08-20T04:08:12.693Z,1.60
2022-08-20T04:18:20.539Z,1.83
2022-08-20T04:28:30.197Z,1.80
2022-08-20T04:38:48.522Z,2.15
2022-08-20T04:48:57.820Z,2.47
2022-08-20T04:59:01.742Z,3.17
2022-08-20T05:09:04.157Z,3.67
2022-08-20T05:19:11.978Z,4.53
2022-08-20T05:29:14.046Z,6.40
2022-08-20T05:39:19.910Z,6.60
2022-08-20T05:49:22.413Z,6.67
2022-08-20T05:59:26.213Z,7.40
2022-08-20T06:09:32.159Z,5.63
2022-08-20T06:19:36.184Z,8.02
2022-08-20T06:29:38.425Z,8.77
2022-08-20T06:39:46.568Z,9.43
2022-08-20T06:49:49.654Z,8.40
2022-08-20T06:59:58.267Z,7.83
2022-08-20T07:11:07.968Z,5.35
2022-08-20T07:21:35.606Z,6.07
2022-08-20T07:52:22.496Z,4.82
2022-08-20T08:02:27.975Z,4.80
2022-08-20T08:12:37.572Z,4.05
2022-08-20T08:22:42.767Z,7.15
2022-08-20T08:33:03.358Z,5.15
2022-08-20T08:43:09.056Z,4.38
2022-08-20T08:53:30.519Z,5.50
2022-08-20T09:03:36.837Z,6.68
2022-08-20T09:13:39.054Z,5.30
2022-08-20T09:23:41.580Z,9.10
2022-08-20T09:33:43.585Z,3.30
2022-08-20T09:43:45.978Z,3.53
2022-08-20T09:53:49.205Z,3.97
2022-08-20T10:03:51.552Z,2.17
2022-08-20T10:13:53.758Z,2.70
2022-08-20T10:23:55.967Z,3.53
2022-08-20T10:33:58.201Z,3.70
2022-08-20T10:44:00.084Z,3.17
2022-08-20T10:54:02.218Z,3.75
2022-08-20T11:04:08.261Z,3.33
2022-08-20T11:14:10.023Z,2.58
2022-08-20T11:24:11.968Z,2.10
2022-08-20T11:34:14.254Z,1.70
2022-08-20T11:44:20.948Z,1.35
2022-08-20T11:54:23.280Z,2.20
2022-08-20T12:04:25.455Z,1.90
2022-08-20T12:14:30.588Z,1.83
2022-08-20T12:24:32.983Z,1.83
2022-08-20T12:34:36.652Z,1.70
2022-08-20T12:44:39.269Z,1.95
2022-08-20T12:54:42.010Z,2.65
2022-08-20T13:04:44.514Z,2.58
2022-08-20T13:14:47.794Z,3.60
2022-08-20T13:24:49.848Z,2.50
2022-08-20T13:34:52.087Z,2.05
2022-08-20T13:44:54.561Z,2.33
2022-08-20T13:54:56.525Z,1.60
2022-08-20T14:04:58.620Z,1.90
2022-08-20T14:15:00.472Z,1.98
2022-08-20T14:25:03.980Z,1.65
2022-08-20T14:35:07.396Z,2.53
2022-08-20T14:45:11.281Z,1.42
2022-08-20T14:55:19.368Z,1.70
2022-08-20T15:05:21.506Z,1.70
2022-08-20T15:15:27.259Z,1.23
2022-08-20T15:25:37.935Z,1.42
2022-08-20T15:35:40.447Z,1.77
2022-08-20T15:45:42.363Z,1.20
2022-08-20T15:55:54.263Z,1.20
2022-08-20T16:06:23.067Z,1.17
2022-08-20T16:16:39.175Z,1.42
2022-08-20T16:27:24.659Z,1.02
2022-08-20T16:37:47.672Z,1.10
2022-08-20T16:47:51.770Z,1.27
2022-08-20T16:57:54.066Z,1.40
2022-08-20T17:08:03.943Z,1.30
2022-08-20T17:18:26.068Z,1.50
2022-08-20T17:28:34.580Z,1.23
2022-08-20T17:38:45.479Z,1.33
2022-08-20T17:48:49.351Z,1.38
2022-08-20T17:58:57.244Z,1.10
2022-08-20T18:09:47.298Z,1.52
2022-08-20T18:20:23.171Z,1.45
2022-08-20T18:30:26.851Z,1.70
2022-08-20T18:40:33.154Z,2.20
2022-08-20T18:50:41.396Z,1.90
2022-08-20T19:00:49.791Z,1.92
2022-08-20T19:10:55.356Z,2.53
2022-08-20T19:21:00.686Z,2.00
2022-08-20T19:31:19.087Z,2.25
2022-08-20T19:41:31.358Z,2.28
2022-08-20T19:52:15.258Z,3.47
2022-08-20T20:02:20.597Z,3.35
2022-08-20T20:12:24.668Z,3.45
2022-08-20T20:22:31.067Z,3.35
2022-08-20T20:32:34.162Z,4.05
2022-08-20T20:42:37.774Z,3.28
2022-08-20T20:52:54.694Z,2.88
2022-08-20T21:02:57.655Z,4.22
2022-08-20T21:13:03.963Z,3.13
2022-08-20T21:23:06.218Z,3.70
2022-08-20T21:33:08.415Z,2.17
2022-08-20T21:43:11.181Z,2.30
2022-08-20T21:53:13.678Z,2.30
2022-08-20T22:03:16.790Z,1.80
2022-08-20T22:13:22.981Z,2.17
2022-08-20T22:23:25.811Z,2.10
2022-08-20T22:33:27.875Z,2.00
2022-08-20T22:43:29.977Z,2.27
2022-08-20T22:53:32.240Z,2.40
2022-08-20T23:03:39.867Z,1.70
2022-08-20T23:13:42.330Z,2.13
2022-08-20T23:23:44.506Z,2.23
2022-08-20T23:33:46.609Z,2.00
2022-08-20T23:43:48.726Z,2.10
2022-08-20T23:53:51.110Z,1.90
